TFM - Tactical Decision Aid (Experimental) INFO Settings
ID: Runway Winds: CIG/VIS Threshold: METAR Board: Map:

KORD - Chicago-O'Hare Intl

Updated at: 2302 UTC 20 Feb 2018
Latest TAF at: 2115 UTC 20 Feb 2018

TAF Board

Time2251Z21/00Z21/01Z21/02Z21/03Z21/04Z21/05Z21/06Z21/07Z21/08Z21/09Z21/10Z21/11Z21/12Z
TypeOBSPRVLPRVLPRVLPRVLPRVLPRVLPRVLPRVLPRVLPRVLPRVLPRVLPRVL
VIS1033333344>6>6>6>6>6
CIG877777715158080808080
CoverOVCOVCOVCOVCOVCOVCOVCOVCOVCBKNBKNBKNBKNBKN
FltCatIFRIFRIFRIFRIFRIFRIFRMVFRMVFRVFRVFRVFRVFRVFR
WX-RARA BRRA BRRA BRRA BRRA BRRA BR-FZRA PL BR-FZRA PL BR----------
WDir260300300300300300300320320330330330330330
WSpd1511111111111114141313131313
WGst2219191919191921211919191919
R04/22
XWnd1011111111111114141212121212
XGst1419191919191921211818181818
HWnd-11-2-2-2-2-2-23355555
HGst-17-3-3-3-3-3-34477777
R09/27
XWnd-366666611111111111111
XGst-410101010101016161616161616
HWnd-15-10-10-10-10-10-10-9-9-7-7-7-7-7
HGst-22-16-16-16-16-16-16-13-13-10-10-10-10-10
R10/28
XWnd-366666611111111111111
XGst-410101010101016161616161616
HWnd-15-10-10-10-10-10-10-9-9-7-7-7-7-7
HGst-22-16-16-16-16-16-16-13-13-10-10-10-10-10
R14/32
XWnd-13-4-4-4-4-4-4-0-022222
XGst-19-6-6-6-6-6-6-0-033333
HWnd-8-10-10-10-10-10-10-14-14-13-13-13-13-13
HGst-11-18-18-18-18-18-18-21-21-19-19-19-19-19
TAF
KORD 202115Z 2021/2124 26010KT 6SM -RA BR SCT006 OVC060
  TEMPO 2021/2023 3SM RA BR
  FM202300 30011G19KT 3SM RA BR SCT004 OVC007
  FM210600 32014G21KT 4SM -FZRAPL BR SCT007 OVC015
  FM210800 33013G19KT P6SM SCT015 BKN080
  FM211300 34012KT P6SM BKN250
  FM211900 02011KT P6SM FEW025 BKN250


METAR Board

Time20/12Z 20/13Z 20/14Z 20/15Z 20/16Z 20/17Z 20/18Z 20/19Z 20/20Z 20/21Z 20/22Z 20/23Z
VIS3 6 10 10 10 10 10 10 2 10 10 10
CIG48 37 15 11 48 38 22 19 34 70 75 8
CoverOVCOVCOVCOVCOVCOVCOVCOVCOVCOVCOVCOVC
FltCatMVFRVFRMVFRMVFRVFRVFRMVFRMVFRIFRVFRVFRIFR
WX-RA BR-RA BR---RA-------RA+RA BR-RA-RA-RA
WDir220190210200210200190200280250240260
WSpd10 9 8 14 17 10 20 16 9 5 7 15
WGst-- -- -- -- 22 20 28 24 -- -- -- 22
METAR
KORD 201151Z 22010KT 3SM -RA BR FEW010 BKN048 OVC060 15/13 A2983 RMK AO2 SLP099 P0026 60093 70144 T01500133 10161 20144 53004 $
KORD 201258Z 19009KT 6SM -RA BR FEW009 BKN037 OVC043 14/13 A2983 RMK AO2 P0002 T01440133
KORD 201351Z 21008KT 10SM FEW008 BKN015 OVC036 15/13 A2985 RMK AO2 RAE42 SLP108 P0014 T01500133
KORD 201451Z 20014KT 10SM -RA BKN011 OVC048 16/14 A2984 RMK AO2 RAB1356 SLP105 P0000 60044 T01560139 50006
KORD 201551Z 21017G22KT 10SM FEW011 BKN048 BKN060 OVC150 17/14 A2984 RMK AO2 RAE1454 SLP103 P0000 T01720144
KORD 201651Z 20010G20KT 10SM FEW015 BKN038 OVC065 18/14 A2983 RMK AO2 RAB35E49 SLP101 P0000 T01780144
KORD 201751Z 19020G28KT 10SM BKN022 OVC049 18/14 A2982 RMK AO2 PK WND 20028/1751 SLP096 60044 T01830144 10183 20144 58008
KORD 201851Z 20016G24KT 10SM -RA OVC019 18/15 A2980 RMK AO2 PK WND 20029/1823 RAB20 SLP088 P0000 T01830150
KORD 201951Z 28009KT 2SM +RA BR FEW023 OVC034 13/12 A2984 RMK AO2 PK WND 30027/1922 WSHFT 1910 TSB06E27 SLP103 P0026 T01280117
KORD 202051Z 25005KT 10SM -RA BKN070 OVC085 12/11 A2987 RMK AO2 SLP113 P0012 60038 T01220111 53015
KORD 202205Z 24007KT 10SM -RA FEW008 BKN075 OVC100 12/10 A2990 RMK AO2 P0000 T01170100
KORD 202251Z 26015G22KT 10SM -RA BKN008 BKN055 OVC090 09/07 A2995 RMK AO2 SLP143 P0003 T00940072

TAF/METAR Board Legend

Potential Impact
  None Marginal Slight Moderate High
Visibility (sm) >5 3≤X≤5 1≤X<3 <1
Ceiling (100 ft) >30 10≤X≤30 5≤X<10 <5
Wind Speed (kt) <10 10≤X<20 20≤X<30 ≥30
Wind Gust (kt) <15 15≤X<25 25≤X<35 ≥35
Weather No Wx Reported VCTS -TS,-FZRA TS,FZRA +TS,+FZRA




Page loaded:  23:02 UTC  |   03:02 PM Pacific  |   04:02 PM Mountain  |   05:02 PM Central  |   06:02 PM Eastern